sensor_id;sensor_type;location;lat;lon;timestamp;P1;durP1;ratioP1;P2;durP2;ratioP2
69783;SDS011;57054;51.978;4.498;2023-12-28T00:00:10;6.93;;;2.20;;
69783;SDS011;57054;51.978;4.498;2023-12-28T00:02:35;3.88;;;2.78;;
69783;SDS011;57054;51.978;4.498;2023-12-28T00:05:01;8.30;;;2.92;;
69783;SDS011;57054;51.978;4.498;2023-12-28T00:07:26;6.53;;;2.90;;
69783;SDS011;57054;51.978;4.498;2023-12-28T00:09:52;3.38;;;2.85;;
69783;SDS011;57054;51.978;4.498;2023-12-28T00:12:18;6.43;;;2.50;;
69783;SDS011;57054;51.978;4.498;2023-12-28T00:14:43;5.15;;;2.40;;
69783;SDS011;57054;51.978;4.498;2023-12-28T00:17:08;8.30;;;3.08;;
69783;SDS011;57054;51.978;4.498;2023-12-28T00:19:34;5.03;;;2.67;;
69783;SDS011;57054;51.978;4.498;2023-12-28T00:21:59;5.30;;;2.58;;
69783;SDS011;57054;51.978;4.498;2023-12-28T00:24:24;4.68;;;3.03;;
69783;SDS011;57054;51.978;4.498;2023-12-28T00:26:50;6.60;;;3.05;;
69783;SDS011;57054;51.978;4.498;2023-12-28T00:29:15;9.63;;;2.60;;
69783;SDS011;57054;51.978;4.498;2023-12-28T00:31:40;8.23;;;2.75;;
69783;SDS011;57054;51.978;4.498;2023-12-28T00:34:06;4.75;;;2.47;;
69783;SDS011;57054;51.978;4.498;2023-12-28T00:36:31;4.20;;;2.55;;
69783;SDS011;57054;51.978;4.498;2023-12-28T00:38:56;8.20;;;2.50;;
69783;SDS011;57054;51.978;4.498;2023-12-28T00:41:22;8.50;;;2.50;;
69783;SDS011;57054;51.978;4.498;2023-12-28T00:43:47;12.95;;;2.50;;
69783;SDS011;57054;51.978;4.498;2023-12-28T00:46:12;10.63;;;2.50;;
69783;SDS011;57054;51.978;4.498;2023-12-28T00:48:38;9.48;;;2.60;;
69783;SDS011;57054;51.978;4.498;2023-12-28T00:51:03;7.43;;;2.92;;
69783;SDS011;57054;51.978;4.498;2023-12-28T00:53:28;7.78;;;2.13;;
69783;SDS011;57054;51.978;4.498;2023-12-28T00:55:54;6.22;;;2.38;;
69783;SDS011;57054;51.978;4.498;2023-12-28T00:58:19;1.90;;;1.60;;
69783;SDS011;57054;51.978;4.498;2023-12-28T01:00:44;10.15;;;2.25;;
69783;SDS011;57054;51.978;4.498;2023-12-28T01:03:10;7.28;;;3.25;;
69783;SDS011;57054;51.978;4.498;2023-12-28T01:05:35;3.83;;;2.22;;
69783;SDS011;57054;51.978;4.498;2023-12-28T01:08:01;9.07;;;2.42;;
69783;SDS011;57054;51.978;4.498;2023-12-28T01:10:27;4.50;;;1.98;;
69783;SDS011;57054;51.978;4.498;2023-12-28T01:12:52;9.38;;;2.53;;
69783;SDS011;57054;51.978;4.498;2023-12-28T01:15:18;7.00;;;2.25;;
69783;SDS011;57054;51.978;4.498;2023-12-28T01:17:45;4.72;;;2.00;;
69783;SDS011;57054;51.978;4.498;2023-12-28T01:20:10;4.25;;;2.25;;
69783;SDS011;57054;51.978;4.498;2023-12-28T01:22:36;4.35;;;2.38;;
69783;SDS011;57054;51.978;4.498;2023-12-28T01:25:01;13.07;;;3.00;;
69783;SDS011;57054;51.978;4.498;2023-12-28T01:27:27;5.20;;;2.20;;
69783;SDS011;57054;51.978;4.498;2023-12-28T01:29:52;9.60;;;2.60;;
69783;SDS011;57054;51.978;4.498;2023-12-28T01:32:18;7.55;;;2.40;;
69783;SDS011;57054;51.978;4.498;2023-12-28T01:34:43;5.70;;;2.17;;
69783;SDS011;57054;51.978;4.498;2023-12-28T01:37:10;7.40;;;3.13;;
69783;SDS011;57054;51.978;4.498;2023-12-28T01:39:35;3.83;;;2.40;;
69783;SDS011;57054;51.978;4.498;2023-12-28T01:42:00;5.97;;;2.60;;
69783;SDS011;57054;51.978;4.498;2023-12-28T01:44:26;3.95;;;2.28;;
69783;SDS011;57054;51.978;4.498;2023-12-28T01:46:51;8.23;;;2.55;;
69783;SDS011;57054;51.978;4.498;2023-12-28T01:49:17;6.75;;;2.33;;
69783;SDS011;57054;51.978;4.498;2023-12-28T01:51:43;5.22;;;2.33;;
69783;SDS011;57054;51.978;4.498;2023-12-28T01:54:10;3.53;;;2.00;;
69783;SDS011;57054;51.978;4.498;2023-12-28T01:56:36;3.80;;;2.20;;
69783;SDS011;57054;51.978;4.498;2023-12-28T01:59:02;5.45;;;2.50;;
69783;SDS011;57054;51.978;4.498;2023-12-28T02:01:28;3.20;;;2.05;;
69783;SDS011;57054;51.978;4.498;2023-12-28T02:03:53;7.22;;;2.40;;
69783;SDS011;57054;51.978;4.498;2023-12-28T02:06:20;4.47;;;1.75;;
69783;SDS011;57054;51.978;4.498;2023-12-28T02:08:48;6.10;;;2.10;;
69783;SDS011;57054;51.978;4.498;2023-12-28T02:11:13;3.47;;;1.98;;
69783;SDS011;57054;51.978;4.498;2023-12-28T02:13:39;6.85;;;2.08;;
69783;SDS011;57054;51.978;4.498;2023-12-28T02:16:06;8.63;;;2.53;;
69783;SDS011;57054;51.978;4.498;2023-12-28T02:18:38;4.65;;;2.13;;
69783;SDS011;57054;51.978;4.498;2023-12-28T02:21:08;5.25;;;2.00;;
69783;SDS011;57054;51.978;4.498;2023-12-28T02:23:33;5.63;;;2.25;;
69783;SDS011;57054;51.978;4.498;2023-12-28T02:25:59;7.40;;;2.20;;
69783;SDS011;57054;51.978;4.498;2023-12-28T02:28:24;5.88;;;2.03;;
69783;SDS011;57054;51.978;4.498;2023-12-28T02:30:49;6.05;;;2.05;;
69783;SDS011;57054;51.978;4.498;2023-12-28T02:33:17;6.75;;;2.30;;
69783;SDS011;57054;51.978;4.498;2023-12-28T02:38:20;7.82;;;3.05;;
69783;SDS011;57054;51.978;4.498;2023-12-28T02:40:48;7.05;;;2.28;;
69783;SDS011;57054;51.978;4.498;2023-12-28T02:43:14;4.70;;;2.20;;
69783;SDS011;57054;51.978;4.498;2023-12-28T02:45:40;5.50;;;2.20;;
69783;SDS011;57054;51.978;4.498;2023-12-28T02:48:05;7.30;;;2.63;;
69783;SDS011;57054;51.978;4.498;2023-12-28T02:50:31;13.27;;;3.08;;
69783;SDS011;57054;51.978;4.498;2023-12-28T02:52:57;5.38;;;2.13;;
69783;SDS011;57054;51.978;4.498;2023-12-28T02:55:23;6.53;;;2.10;;
69783;SDS011;57054;51.978;4.498;2023-12-28T02:57:49;8.60;;;2.20;;
69783;SDS011;57054;51.978;4.498;2023-12-28T03:00:15;8.75;;;2.72;;
69783;SDS011;57054;51.978;4.498;2023-12-28T03:02:42;8.90;;;2.53;;
69783;SDS011;57054;51.978;4.498;2023-12-28T03:05:07;14.75;;;3.15;;
69783;SDS011;57054;51.978;4.498;2023-12-28T03:07:33;3.95;;;1.70;;
69783;SDS011;57054;51.978;4.498;2023-12-28T03:09:59;14.05;;;2.00;;
69783;SDS011;57054;51.978;4.498;2023-12-28T03:12:25;8.60;;;1.75;;
69783;SDS011;57054;51.978;4.498;2023-12-28T03:14:50;12.48;;;3.10;;
69783;SDS011;57054;51.978;4.498;2023-12-28T03:17:16;7.95;;;2.13;;
69783;SDS011;57054;51.978;4.498;2023-12-28T03:19:41;6.97;;;1.95;;
69783;SDS011;57054;51.978;4.498;2023-12-28T03:22:06;5.38;;;1.60;;
69783;SDS011;57054;51.978;4.498;2023-12-28T03:24:32;5.72;;;1.95;;
69783;SDS011;57054;51.978;4.498;2023-12-28T03:26:57;4.65;;;1.70;;
69783;SDS011;57054;51.978;4.498;2023-12-28T03:29:23;11.52;;;2.08;;
69783;SDS011;57054;51.978;4.498;2023-12-28T03:31:49;8.15;;;1.70;;
69783;SDS011;57054;51.978;4.498;2023-12-28T03:34:14;14.07;;;2.10;;
69783;SDS011;57054;51.978;4.498;2023-12-28T03:36:40;6.55;;;1.38;;
69783;SDS011;57054;51.978;4.498;2023-12-28T03:39:05;10.18;;;1.83;;
69783;SDS011;57054;51.978;4.498;2023-12-28T03:41:31;6.40;;;1.52;;
69783;SDS011;57054;51.978;4.498;2023-12-28T03:43:56;11.40;;;2.72;;
69783;SDS011;57054;51.978;4.498;2023-12-28T03:46:22;15.35;;;2.65;;
69783;SDS011;57054;51.978;4.498;2023-12-28T03:48:47;9.23;;;2.42;;
69783;SDS011;57054;51.978;4.498;2023-12-28T03:51:13;3.45;;;1.42;;
69783;SDS011;57054;51.978;4.498;2023-12-28T03:53:40;11.73;;;1.90;;
69783;SDS011;57054;51.978;4.498;2023-12-28T03:56:05;8.55;;;2.00;;
69783;SDS011;57054;51.978;4.498;2023-12-28T03:58:31;11.75;;;1.88;;
69783;SDS011;57054;51.978;4.498;2023-12-28T04:00:56;9.20;;;2.25;;
69783;SDS011;57054;51.978;4.498;2023-12-28T04:03:21;8.32;;;1.63;;
69783;SDS011;57054;51.978;4.498;2023-12-28T04:05:47;9.68;;;2.88;;
69783;SDS011;57054;51.978;4.498;2023-12-28T04:08:12;12.57;;;1.95;;
69783;SDS011;57054;51.978;4.498;2023-12-28T04:10:38;5.65;;;1.58;;
69783;SDS011;57054;51.978;4.498;2023-12-28T04:13:03;8.95;;;1.63;;
69783;SDS011;57054;51.978;4.498;2023-12-28T04:15:29;7.28;;;1.70;;
69783;SDS011;57054;51.978;4.498;2023-12-28T04:17:55;8.27;;;1.83;;
69783;SDS011;57054;51.978;4.498;2023-12-28T04:20:20;11.95;;;2.00;;
69783;SDS011;57054;51.978;4.498;2023-12-28T04:22:46;9.18;;;1.77;;
69783;SDS011;57054;51.978;4.498;2023-12-28T04:25:11;7.30;;;1.75;;
69783;SDS011;57054;51.978;4.498;2023-12-28T04:27:37;8.88;;;1.95;;
69783;SDS011;57054;51.978;4.498;2023-12-28T04:30:04;14.65;;;2.33;;
69783;SDS011;57054;51.978;4.498;2023-12-28T04:32:33;9.40;;;2.15;;
69783;SDS011;57054;51.978;4.498;2023-12-28T04:34:58;8.52;;;1.67;;
69783;SDS011;57054;51.978;4.498;2023-12-28T04:37:24;10.02;;;2.72;;
69783;SDS011;57054;51.978;4.498;2023-12-28T04:39:51;9.05;;;2.17;;
69783;SDS011;57054;51.978;4.498;2023-12-28T04:42:18;10.10;;;1.67;;
69783;SDS011;57054;51.978;4.498;2023-12-28T04:44:43;15.15;;;1.50;;
69783;SDS011;57054;51.978;4.498;2023-12-28T04:47:09;16.48;;;2.63;;
69783;SDS011;57054;51.978;4.498;2023-12-28T04:49:34;9.63;;;1.67;;
69783;SDS011;57054;51.978;4.498;2023-12-28T04:51:59;16.08;;;2.53;;
69783;SDS011;57054;51.978;4.498;2023-12-28T04:54:25;13.82;;;2.15;;
69783;SDS011;57054;51.978;4.498;2023-12-28T04:56:50;9.57;;;2.00;;
69783;SDS011;57054;51.978;4.498;2023-12-28T04:59:16;9.43;;;1.33;;
69783;SDS011;57054;51.978;4.498;2023-12-28T05:01:41;17.25;;;2.15;;
69783;SDS011;57054;51.978;4.498;2023-12-28T05:04:10;12.95;;;1.80;;
69783;SDS011;57054;51.978;4.498;2023-12-28T05:06:36;17.40;;;2.22;;
69783;SDS011;57054;51.978;4.498;2023-12-28T05:09:01;19.00;;;2.35;;
69783;SDS011;57054;51.978;4.498;2023-12-28T05:11:27;15.20;;;1.73;;
69783;SDS011;57054;51.978;4.498;2023-12-28T05:13:52;15.82;;;2.40;;
69783;SDS011;57054;51.978;4.498;2023-12-28T05:16:18;13.80;;;2.10;;
69783;SDS011;57054;51.978;4.498;2023-12-28T05:18:44;15.55;;;2.05;;
69783;SDS011;57054;51.978;4.498;2023-12-28T05:21:09;7.85;;;2.10;;
69783;SDS011;57054;51.978;4.498;2023-12-28T05:23:34;11.02;;;2.17;;
69783;SDS011;57054;51.978;4.498;2023-12-28T05:26:00;15.90;;;1.95;;
69783;SDS011;57054;51.978;4.498;2023-12-28T05:28:25;8.70;;;1.90;;
69783;SDS011;57054;51.978;4.498;2023-12-28T05:30:50;16.23;;;2.30;;
69783;SDS011;57054;51.978;4.498;2023-12-28T05:33:16;18.52;;;2.75;;
69783;SDS011;57054;51.978;4.498;2023-12-28T05:35:41;20.35;;;2.67;;
69783;SDS011;57054;51.978;4.498;2023-12-28T05:38:06;18.25;;;2.38;;
69783;SDS011;57054;51.978;4.498;2023-12-28T05:40:32;13.38;;;2.92;;
69783;SDS011;57054;51.978;4.498;2023-12-28T05:42:57;14.48;;;2.28;;
69783;SDS011;57054;51.978;4.498;2023-12-28T05:45:22;15.43;;;2.78;;
69783;SDS011;57054;51.978;4.498;2023-12-28T05:47:48;11.90;;;2.70;;
69783;SDS011;57054;51.978;4.498;2023-12-28T05:50:13;15.32;;;2.28;;
69783;SDS011;57054;51.978;4.498;2023-12-28T05:52:38;9.95;;;2.08;;
69783;SDS011;57054;51.978;4.498;2023-12-28T05:55:04;14.23;;;2.25;;
69783;SDS011;57054;51.978;4.498;2023-12-28T05:57:30;11.55;;;2.63;;
69783;SDS011;57054;51.978;4.498;2023-12-28T05:59:56;15.65;;;2.25;;
69783;SDS011;57054;51.978;4.498;2023-12-28T06:02:22;12.85;;;2.38;;
69783;SDS011;57054;51.978;4.498;2023-12-28T06:04:47;17.58;;;3.05;;
69783;SDS011;57054;51.978;4.498;2023-12-28T06:07:13;17.05;;;3.03;;
69783;SDS011;57054;51.978;4.498;2023-12-28T06:09:38;11.77;;;2.58;;
69783;SDS011;57054;51.978;4.498;2023-12-28T06:12:07;13.25;;;2.78;;
69783;SDS011;57054;51.978;4.498;2023-12-28T06:14:32;18.25;;;2.40;;
69783;SDS011;57054;51.978;4.498;2023-12-28T06:16:58;26.27;;;3.00;;
69783;SDS011;57054;51.978;4.498;2023-12-28T06:19:23;11.27;;;2.58;;
69783;SDS011;57054;51.978;4.498;2023-12-28T06:21:49;19.83;;;3.58;;
69783;SDS011;57054;51.978;4.498;2023-12-28T06:24:14;15.25;;;2.65;;
69783;SDS011;57054;51.978;4.498;2023-12-28T06:26:40;14.23;;;2.40;;
69783;SDS011;57054;51.978;4.498;2023-12-28T06:29:09;16.27;;;2.78;;
69783;SDS011;57054;51.978;4.498;2023-12-28T06:31:35;17.65;;;3.03;;
69783;SDS011;57054;51.978;4.498;2023-12-28T06:34:02;16.67;;;2.50;;
69783;SDS011;57054;51.978;4.498;2023-12-28T06:36:31;23.45;;;2.97;;
69783;SDS011;57054;51.978;4.498;2023-12-28T06:38:57;20.45;;;2.67;;
69783;SDS011;57054;51.978;4.498;2023-12-28T06:41:24;18.60;;;2.60;;
69783;SDS011;57054;51.978;4.498;2023-12-28T06:43:50;16.67;;;2.38;;
69783;SDS011;57054;51.978;4.498;2023-12-28T06:46:15;20.30;;;2.72;;
69783;SDS011;57054;51.978;4.498;2023-12-28T06:48:40;28.15;;;3.08;;
69783;SDS011;57054;51.978;4.498;2023-12-28T06:51:06;21.92;;;3.03;;
69783;SDS011;57054;51.978;4.498;2023-12-28T06:53:32;25.52;;;3.35;;
69783;SDS011;57054;51.978;4.498;2023-12-28T06:55:57;20.92;;;2.40;;
69783;SDS011;57054;51.978;4.498;2023-12-28T06:58:23;17.65;;;3.30;;
69783;SDS011;57054;51.978;4.498;2023-12-28T07:00:48;21.30;;;3.67;;
69783;SDS011;57054;51.978;4.498;2023-12-28T07:03:14;14.13;;;2.42;;
69783;SDS011;57054;51.978;4.498;2023-12-28T07:05:39;16.27;;;2.78;;
69783;SDS011;57054;51.978;4.498;2023-12-28T07:08:04;12.95;;;2.40;;
69783;SDS011;57054;51.978;4.498;2023-12-28T07:10:30;12.75;;;2.17;;
69783;SDS011;57054;51.978;4.498;2023-12-28T07:12:55;15.60;;;3.42;;
69783;SDS011;57054;51.978;4.498;2023-12-28T07:15:21;21.65;;;3.22;;
69783;SDS011;57054;51.978;4.498;2023-12-28T07:17:46;15.85;;;2.67;;
69783;SDS011;57054;51.978;4.498;2023-12-28T07:20:11;15.02;;;2.17;;
69783;SDS011;57054;51.978;4.498;2023-12-28T07:22:37;16.60;;;2.38;;
69783;SDS011;57054;51.978;4.498;2023-12-28T07:25:06;15.23;;;2.55;;
69783;SDS011;57054;51.978;4.498;2023-12-28T07:27:32;14.55;;;2.63;;
69783;SDS011;57054;51.978;4.498;2023-12-28T07:29:59;18.40;;;2.70;;
69783;SDS011;57054;51.978;4.498;2023-12-28T07:32:25;18.60;;;2.45;;
69783;SDS011;57054;51.978;4.498;2023-12-28T07:34:51;17.83;;;2.65;;
69783;SDS011;57054;51.978;4.498;2023-12-28T07:37:18;21.02;;;2.97;;
69783;SDS011;57054;51.978;4.498;2023-12-28T07:39:43;15.73;;;2.70;;
69783;SDS011;57054;51.978;4.498;2023-12-28T07:42:09;13.82;;;2.70;;
69783;SDS011;57054;51.978;4.498;2023-12-28T07:44:34;16.13;;;2.28;;
69783;SDS011;57054;51.978;4.498;2023-12-28T07:47:00;20.00;;;2.50;;
69783;SDS011;57054;51.978;4.498;2023-12-28T07:49:25;17.88;;;3.05;;
69783;SDS011;57054;51.978;4.498;2023-12-28T07:51:51;15.35;;;2.90;;
69783;SDS011;57054;51.978;4.498;2023-12-28T07:54:16;15.93;;;2.38;;
69783;SDS011;57054;51.978;4.498;2023-12-28T07:56:42;10.25;;;2.63;;
69783;SDS011;57054;51.978;4.498;2023-12-28T07:59:07;16.08;;;2.55;;
69783;SDS011;57054;51.978;4.498;2023-12-28T08:01:34;18.88;;;3.03;;
69783;SDS011;57054;51.978;4.498;2023-12-28T08:03:59;18.73;;;2.65;;
69783;SDS011;57054;51.978;4.498;2023-12-28T08:06:26;19.33;;;2.53;;
69783;SDS011;57054;51.978;4.498;2023-12-28T08:08:52;15.13;;;2.30;;
69783;SDS011;57054;51.978;4.498;2023-12-28T08:11:18;16.70;;;3.08;;
69783;SDS011;57054;51.978;4.498;2023-12-28T08:13:44;25.35;;;2.92;;
69783;SDS011;57054;51.978;4.498;2023-12-28T08:16:09;16.15;;;2.65;;
69783;SDS011;57054;51.978;4.498;2023-12-28T08:18:35;11.82;;;2.35;;
69783;SDS011;57054;51.978;4.498;2023-12-28T08:21:00;14.80;;;2.63;;
69783;SDS011;57054;51.978;4.498;2023-12-28T08:23:25;19.17;;;2.72;;
69783;SDS011;57054;51.978;4.498;2023-12-28T08:25:51;25.13;;;3.85;;
69783;SDS011;57054;51.978;4.498;2023-12-28T08:28:16;22.65;;;3.40;;
69783;SDS011;57054;51.978;4.498;2023-12-28T08:30:42;25.58;;;2.97;;
69783;SDS011;57054;51.978;4.498;2023-12-28T08:33:07;15.13;;;2.53;;
69783;SDS011;57054;51.978;4.498;2023-12-28T08:35:33;16.75;;;2.58;;
69783;SDS011;57054;51.978;4.498;2023-12-28T08:37:58;13.73;;;2.65;;
69783;SDS011;57054;51.978;4.498;2023-12-28T08:40:24;16.92;;;2.80;;
69783;SDS011;57054;51.978;4.498;2023-12-28T08:42:50;15.23;;;2.10;;
69783;SDS011;57054;51.978;4.498;2023-12-28T08:45:16;13.35;;;2.40;;
69783;SDS011;57054;51.978;4.498;2023-12-28T08:47:41;20.23;;;3.25;;
69783;SDS011;57054;51.978;4.498;2023-12-28T08:50:06;12.98;;;2.40;;
69783;SDS011;57054;51.978;4.498;2023-12-28T08:52:32;13.05;;;2.28;;
69783;SDS011;57054;51.978;4.498;2023-12-28T08:54:57;13.93;;;2.17;;
69783;SDS011;57054;51.978;4.498;2023-12-28T08:57:23;22.58;;;3.67;;
69783;SDS011;57054;51.978;4.498;2023-12-28T08:59:49;11.88;;;1.85;;
69783;SDS011;57054;51.978;4.498;2023-12-28T09:02:14;10.05;;;2.35;;
69783;SDS011;57054;51.978;4.498;2023-12-28T09:04:39;20.63;;;2.83;;
69783;SDS011;57054;51.978;4.498;2023-12-28T09:07:05;15.95;;;3.15;;
69783;SDS011;57054;51.978;4.498;2023-12-28T09:09:30;20.23;;;3.88;;
69783;SDS011;57054;51.978;4.498;2023-12-28T09:11:55;15.70;;;2.70;;
69783;SDS011;57054;51.978;4.498;2023-12-28T09:14:21;15.73;;;2.40;;
69783;SDS011;57054;51.978;4.498;2023-12-28T09:16:47;20.42;;;2.55;;
69783;SDS011;57054;51.978;4.498;2023-12-28T09:19:12;21.38;;;3.63;;
69783;SDS011;57054;51.978;4.498;2023-12-28T09:21:38;16.58;;;2.80;;
69783;SDS011;57054;51.978;4.498;2023-12-28T09:24:03;28.80;;;2.85;;
69783;SDS011;57054;51.978;4.498;2023-12-28T09:26:29;21.67;;;3.53;;
69783;SDS011;57054;51.978;4.498;2023-12-28T09:28:54;16.48;;;2.65;;
69783;SDS011;57054;51.978;4.498;2023-12-28T09:31:20;25.35;;;3.35;;
69783;SDS011;57054;51.978;4.498;2023-12-28T09:33:45;16.55;;;3.08;;
69783;SDS011;57054;51.978;4.498;2023-12-28T09:36:11;17.98;;;2.83;;
69783;SDS011;57054;51.978;4.498;2023-12-28T09:38:38;16.15;;;2.58;;
69783;SDS011;57054;51.978;4.498;2023-12-28T09:41:07;16.15;;;2.95;;
69783;SDS011;57054;51.978;4.498;2023-12-28T09:43:41;15.48;;;2.72;;
69783;SDS011;57054;51.978;4.498;2023-12-28T09:46:14;14.70;;;2.55;;
69783;SDS011;57054;51.978;4.498;2023-12-28T09:48:40;23.52;;;2.95;;
69783;SDS011;57054;51.978;4.498;2023-12-28T09:51:05;22.30;;;3.25;;
69783;SDS011;57054;51.978;4.498;2023-12-28T09:53:31;20.77;;;3.30;;
69783;SDS011;57054;51.978;4.498;2023-12-28T09:55:56;18.23;;;3.03;;
69783;SDS011;57054;51.978;4.498;2023-12-28T09:58:22;18.67;;;2.63;;
69783;SDS011;57054;51.978;4.498;2023-12-28T10:00:48;16.35;;;3.00;;
69783;SDS011;57054;51.978;4.498;2023-12-28T10:03:15;12.73;;;2.63;;
69783;SDS011;57054;51.978;4.498;2023-12-28T10:05:41;14.80;;;3.72;;
69783;SDS011;57054;51.978;4.498;2023-12-28T10:08:07;21.38;;;3.70;;
69783;SDS011;57054;51.978;4.498;2023-12-28T10:10:33;26.27;;;3.58;;
69783;SDS011;57054;51.978;4.498;2023-12-28T10:12:58;16.80;;;2.85;;
69783;SDS011;57054;51.978;4.498;2023-12-28T10:15:24;19.73;;;3.05;;
69783;SDS011;57054;51.978;4.498;2023-12-28T10:17:51;16.08;;;2.75;;
69783;SDS011;57054;51.978;4.498;2023-12-28T10:20:17;20.58;;;3.15;;
69783;SDS011;57054;51.978;4.498;2023-12-28T10:22:42;19.90;;;2.55;;
69783;SDS011;57054;51.978;4.498;2023-12-28T10:25:08;21.20;;;3.05;;
69783;SDS011;57054;51.978;4.498;2023-12-28T10:27:38;20.45;;;2.75;;
69783;SDS011;57054;51.978;4.498;2023-12-28T10:30:06;14.10;;;3.40;;
69783;SDS011;57054;51.978;4.498;2023-12-28T10:32:32;13.68;;;2.15;;
69783;SDS011;57054;51.978;4.498;2023-12-28T10:34:57;19.02;;;3.17;;
69783;SDS011;57054;51.978;4.498;2023-12-28T10:37:23;17.67;;;3.47;;
69783;SDS011;57054;51.978;4.498;2023-12-28T10:39:51;15.23;;;2.95;;
69783;SDS011;57054;51.978;4.498;2023-12-28T10:42:28;21.50;;;3.15;;
69783;SDS011;57054;51.978;4.498;2023-12-28T10:45:04;30.20;;;2.90;;
69783;SDS011;57054;51.978;4.498;2023-12-28T10:47:33;25.25;;;3.03;;
69783;SDS011;57054;51.978;4.498;2023-12-28T10:50:03;17.30;;;2.70;;
69783;SDS011;57054;51.978;4.498;2023-12-28T10:52:30;21.00;;;2.92;;
69783;SDS011;57054;51.978;4.498;2023-12-28T10:55:11;23.08;;;3.38;;
69783;SDS011;57054;51.978;4.498;2023-12-28T10:57:42;26.15;;;3.53;;
69783;SDS011;57054;51.978;4.498;2023-12-28T11:00:16;29.63;;;3.33;;
69783;SDS011;57054;51.978;4.498;2023-12-28T11:02:55;17.45;;;2.90;;
69783;SDS011;57054;51.978;4.498;2023-12-28T11:05:23;20.05;;;3.10;;
69783;SDS011;57054;51.978;4.498;2023-12-28T11:07:51;24.27;;;3.07;;
69783;SDS011;57054;51.978;4.498;2023-12-28T11:10:22;22.98;;;2.55;;
69783;SDS011;57054;51.978;4.498;2023-12-28T11:12:51;23.27;;;3.15;;
69783;SDS011;57054;51.978;4.498;2023-12-28T11:15:18;13.98;;;2.42;;
69783;SDS011;57054;51.978;4.498;2023-12-28T11:17:44;19.60;;;2.63;;
69783;SDS011;57054;51.978;4.498;2023-12-28T11:20:09;19.00;;;2.92;;
69783;SDS011;57054;51.978;4.498;2023-12-28T11:22:36;15.00;;;2.63;;
69783;SDS011;57054;51.978;4.498;2023-12-28T11:25:03;15.27;;;2.20;;
69783;SDS011;57054;51.978;4.498;2023-12-28T11:27:35;18.58;;;3.00;;
69783;SDS011;57054;51.978;4.498;2023-12-28T11:30:01;18.67;;;2.60;;
69783;SDS011;57054;51.978;4.498;2023-12-28T11:32:31;32.45;;;3.80;;
69783;SDS011;57054;51.978;4.498;2023-12-28T11:34:58;15.02;;;2.67;;
69783;SDS011;57054;51.978;4.498;2023-12-28T11:37:23;24.85;;;2.97;;
69783;SDS011;57054;51.978;4.498;2023-12-28T11:39:51;18.92;;;3.25;;
69783;SDS011;57054;51.978;4.498;2023-12-28T11:42:20;23.58;;;3.30;;
69783;SDS011;57054;51.978;4.498;2023-12-28T11:44:47;17.30;;;2.47;;
69783;SDS011;57054;51.978;4.498;2023-12-28T11:47:24;17.70;;;2.67;;
69783;SDS011;57054;51.978;4.498;2023-12-28T11:49:52;21.10;;;3.00;;
69783;SDS011;57054;51.978;4.498;2023-12-28T11:52:22;20.15;;;3.53;;
69783;SDS011;57054;51.978;4.498;2023-12-28T11:54:55;15.13;;;2.78;;
69783;SDS011;57054;51.978;4.498;2023-12-28T11:57:21;27.17;;;4.05;;
69783;SDS011;57054;51.978;4.498;2023-12-28T11:59:57;22.50;;;3.33;;
69783;SDS011;57054;51.978;4.498;2023-12-28T12:02:24;19.80;;;2.60;;
69783;SDS011;57054;51.978;4.498;2023-12-28T12:04:50;13.05;;;2.90;;
69783;SDS011;57054;51.978;4.498;2023-12-28T12:07:15;21.15;;;2.72;;
69783;SDS011;57054;51.978;4.498;2023-12-28T12:09:41;15.25;;;2.83;;
69783;SDS011;57054;51.978;4.498;2023-12-28T12:12:07;19.13;;;3.08;;
69783;SDS011;57054;51.978;4.498;2023-12-28T12:14:33;25.13;;;3.33;;
69783;SDS011;57054;51.978;4.498;2023-12-28T12:17:00;21.33;;;3.22;;
69783;SDS011;57054;51.978;4.498;2023-12-28T12:19:25;21.85;;;2.63;;
69783;SDS011;57054;51.978;4.498;2023-12-28T12:21:52;23.10;;;3.53;;
69783;SDS011;57054;51.978;4.498;2023-12-28T12:24:18;18.50;;;3.08;;
69783;SDS011;57054;51.978;4.498;2023-12-28T12:26:45;17.15;;;3.03;;
69783;SDS011;57054;51.978;4.498;2023-12-28T12:29:11;19.05;;;3.30;;
69783;SDS011;57054;51.978;4.498;2023-12-28T12:31:36;21.25;;;3.20;;
69783;SDS011;57054;51.978;4.498;2023-12-28T12:34:05;20.13;;;2.63;;
69783;SDS011;57054;51.978;4.498;2023-12-28T12:36:31;23.92;;;3.25;;
69783;SDS011;57054;51.978;4.498;2023-12-28T12:38:56;23.02;;;3.30;;
69783;SDS011;57054;51.978;4.498;2023-12-28T12:41:22;13.75;;;2.47;;
69783;SDS011;57054;51.978;4.498;2023-12-28T12:43:47;24.88;;;2.95;;
69783;SDS011;57054;51.978;4.498;2023-12-28T12:46:13;20.48;;;3.40;;
69783;SDS011;57054;51.978;4.498;2023-12-28T12:48:39;16.85;;;3.60;;
69783;SDS011;57054;51.978;4.498;2023-12-28T12:51:05;12.90;;;2.40;;
69783;SDS011;57054;51.978;4.498;2023-12-28T12:53:34;12.55;;;2.75;;
69783;SDS011;57054;51.978;4.498;2023-12-28T12:56:02;18.20;;;2.58;;
69783;SDS011;57054;51.978;4.498;2023-12-28T12:58:29;14.25;;;2.80;;
69783;SDS011;57054;51.978;4.498;2023-12-28T13:00:55;20.38;;;3.08;;
69783;SDS011;57054;51.978;4.498;2023-12-28T13:03:21;19.88;;;2.75;;
69783;SDS011;57054;51.978;4.498;2023-12-28T13:05:47;20.20;;;3.20;;
69783;SDS011;57054;51.978;4.498;2023-12-28T13:08:13;19.45;;;3.10;;
69783;SDS011;57054;51.978;4.498;2023-12-28T13:10:39;22.45;;;3.05;;
69783;SDS011;57054;51.978;4.498;2023-12-28T13:13:07;14.52;;;2.42;;
69783;SDS011;57054;51.978;4.498;2023-12-28T13:17:58;19.83;;;3.42;;
69783;SDS011;57054;51.978;4.498;2023-12-28T13:20:24;19.67;;;3.95;;
69783;SDS011;57054;51.978;4.498;2023-12-28T13:22:50;18.35;;;3.13;;
69783;SDS011;57054;51.978;4.498;2023-12-28T13:25:15;24.63;;;3.17;;
69783;SDS011;57054;51.978;4.498;2023-12-28T13:27:41;21.10;;;3.53;;
69783;SDS011;57054;51.978;4.498;2023-12-28T13:30:07;23.92;;;3.72;;
69783;SDS011;57054;51.978;4.498;2023-12-28T13:32:32;19.83;;;3.22;;
69783;SDS011;57054;51.978;4.498;2023-12-28T13:34:58;22.38;;;3.05;;
69783;SDS011;57054;51.978;4.498;2023-12-28T13:37:23;22.02;;;3.33;;
69783;SDS011;57054;51.978;4.498;2023-12-28T13:39:49;19.83;;;3.10;;
69783;SDS011;57054;51.978;4.498;2023-12-28T13:42:14;19.30;;;2.88;;
69783;SDS011;57054;51.978;4.498;2023-12-28T13:44:39;22.58;;;2.97;;
69783;SDS011;57054;51.978;4.498;2023-12-28T13:47:05;25.00;;;3.20;;
69783;SDS011;57054;51.978;4.498;2023-12-28T13:49:31;14.10;;;2.90;;
69783;SDS011;57054;51.978;4.498;2023-12-28T13:51:56;11.48;;;2.35;;
69783;SDS011;57054;51.978;4.498;2023-12-28T13:54:22;19.42;;;3.28;;
69783;SDS011;57054;51.978;4.498;2023-12-28T13:56:48;19.17;;;2.30;;
69783;SDS011;57054;51.978;4.498;2023-12-28T13:59:13;20.75;;;2.97;;
69783;SDS011;57054;51.978;4.498;2023-12-28T14:01:39;19.42;;;3.38;;
69783;SDS011;57054;51.978;4.498;2023-12-28T14:04:05;20.00;;;2.78;;
69783;SDS011;57054;51.978;4.498;2023-12-28T14:06:31;24.85;;;3.42;;
69783;SDS011;57054;51.978;4.498;2023-12-28T14:08:56;22.90;;;3.15;;
69783;SDS011;57054;51.978;4.498;2023-12-28T14:11:22;22.13;;;3.45;;
69783;SDS011;57054;51.978;4.498;2023-12-28T14:13:48;10.52;;;2.10;;
69783;SDS011;57054;51.978;4.498;2023-12-28T14:16:14;22.95;;;2.60;;
69783;SDS011;57054;51.978;4.498;2023-12-28T14:18:39;27.55;;;3.53;;
69783;SDS011;57054;51.978;4.498;2023-12-28T14:21:07;25.67;;;3.40;;
69783;SDS011;57054;51.978;4.498;2023-12-28T14:23:34;18.83;;;3.58;;
69783;SDS011;57054;51.978;4.498;2023-12-28T14:26:00;18.55;;;3.15;;
69783;SDS011;57054;51.978;4.498;2023-12-28T14:28:25;18.60;;;2.92;;
69783;SDS011;57054;51.978;4.498;2023-12-28T14:30:51;20.77;;;2.95;;
69783;SDS011;57054;51.978;4.498;2023-12-28T14:33:17;28.75;;;4.22;;
69783;SDS011;57054;51.978;4.498;2023-12-28T14:35:43;18.33;;;3.22;;